sensor_id;sensor_type;location;lat;lon;timestamp;pressure;altitude;pressure_sealevel;temperature;humidity
13414;BME280;6778;48.136;11.386;2022-12-15T00:01:11;93957.34;;;2.18;86.86
13414;BME280;6778;48.136;11.386;2022-12-15T00:03:52;93947.81;;;2.18;86.84
13414;BME280;6778;48.136;11.386;2022-12-15T00:06:33;93956.53;;;2.17;86.80
13414;BME280;6778;48.136;11.386;2022-12-15T00:09:14;93973.22;;;2.08;87.11
13414;BME280;6778;48.136;11.386;2022-12-15T00:11:55;93975.78;;;2.15;86.94
13414;BME280;6778;48.136;11.386;2022-12-15T00:14:39;93970.63;;;2.08;86.93
13414;BME280;6778;48.136;11.386;2022-12-15T00:17:20;93968.25;;;2.07;87.01
13414;BME280;6778;48.136;11.386;2022-12-15T00:20:01;93964.88;;;2.06;87.03
13414;BME280;6778;48.136;11.386;2022-12-15T00:22:44;93962.88;;;2.08;86.94
13414;BME280;6778;48.136;11.386;2022-12-15T00:25:25;93973.81;;;2.04;86.87
13414;BME280;6778;48.136;11.386;2022-12-15T00:28:06;93963.28;;;2.05;85.85
13414;BME280;6778;48.136;11.386;2022-12-15T00:30:49;93969.63;;;2.03;85.60
13414;BME280;6778;48.136;11.386;2022-12-15T00:33:32;93960.50;;;2.07;85.64
13414;BME280;6778;48.136;11.386;2022-12-15T00:36:13;93959.28;;;2.03;85.18
13414;BME280;6778;48.136;11.386;2022-12-15T00:38:54;93979.94;;;2.03;85.25
13414;BME280;6778;48.136;11.386;2022-12-15T00:41:23;93973.03;;;1.97;85.63
13414;BME280;6778;48.136;11.386;2022-12-15T00:43:52;93971.81;;;1.92;85.59
13414;BME280;6778;48.136;11.386;2022-12-15T00:46:23;93973.59;;;1.85;85.68
13414;BME280;6778;48.136;11.386;2022-12-15T00:49:04;93974.38;;;1.86;85.88
13414;BME280;6778;48.136;11.386;2022-12-15T00:51:53;93976.94;;;1.79;85.68
13414;BME280;6778;48.136;11.386;2022-12-15T00:54:34;93971.38;;;1.76;86.06
13414;BME280;6778;48.136;11.386;2022-12-15T00:57:15;93985.47;;;1.80;85.86
13414;BME280;6778;48.136;11.386;2022-12-15T00:59:55;93987.28;;;1.86;85.70
13414;BME280;6778;48.136;11.386;2022-12-15T01:02:39;93985.09;;;1.76;85.96
13414;BME280;6778;48.136;11.386;2022-12-15T01:05:20;93997.41;;;1.81;86.05
13414;BME280;6778;48.136;11.386;2022-12-15T01:08:01;93987.06;;;1.74;86.06
13414;BME280;6778;48.136;11.386;2022-12-15T01:10:42;93992.22;;;1.81;85.35
13414;BME280;6778;48.136;11.386;2022-12-15T01:13:23;93990.84;;;1.72;85.38
13414;BME280;6778;48.136;11.386;2022-12-15T01:16:09;93995.56;;;1.68;85.43
13414;BME280;6778;48.136;11.386;2022-12-15T01:18:52;93995.41;;;1.70;85.30
13414;BME280;6778;48.136;11.386;2022-12-15T01:21:33;93996.00;;;1.72;85.36
13414;BME280;6778;48.136;11.386;2022-12-15T01:24:02;94000.94;;;1.73;85.28
13414;BME280;6778;48.136;11.386;2022-12-15T01:26:30;94001.75;;;1.74;85.21
13414;BME280;6778;48.136;11.386;2022-12-15T01:28:59;94005.53;;;1.71;85.23
13414;BME280;6778;48.136;11.386;2022-12-15T01:31:28;94006.72;;;1.75;85.25
13414;BME280;6778;48.136;11.386;2022-12-15T01:34:00;94018.44;;;1.71;85.05
13414;BME280;6778;48.136;11.386;2022-12-15T01:36:29;94013.47;;;1.70;85.26
13414;BME280;6778;48.136;11.386;2022-12-15T01:38:57;94024.38;;;1.65;85.51
13414;BME280;6778;48.136;11.386;2022-12-15T01:41:26;94026.16;;;1.64;85.50
13414;BME280;6778;48.136;11.386;2022-12-15T01:43:53;94021.78;;;1.65;85.71
13414;BME280;6778;48.136;11.386;2022-12-15T01:46:23;94022.34;;;1.60;85.86
13414;BME280;6778;48.136;11.386;2022-12-15T01:48:58;94025.53;;;1.62;85.79
13414;BME280;6778;48.136;11.386;2022-12-15T01:51:32;94016.19;;;1.61;86.09
13414;BME280;6778;48.136;11.386;2022-12-15T01:54:07;94018.22;;;1.66;85.84
13414;BME280;6778;48.136;11.386;2022-12-15T01:56:42;94019.78;;;1.60;85.92
13414;BME280;6778;48.136;11.386;2022-12-15T01:59:15;94022.16;;;1.69;85.86
13414;BME280;6778;48.136;11.386;2022-12-15T02:01:46;94015.63;;;1.66;85.55
13414;BME280;6778;48.136;11.386;2022-12-15T02:04:16;94025.94;;;1.66;85.44
13414;BME280;6778;48.136;11.386;2022-12-15T02:06:49;94014.25;;;1.70;85.28
13414;BME280;6778;48.136;11.386;2022-12-15T02:09:20;94014.38;;;1.55;85.51
13414;BME280;6778;48.136;11.386;2022-12-15T02:12:00;94023.91;;;1.55;85.71
13414;BME280;6778;48.136;11.386;2022-12-15T02:14:44;94034.06;;;1.56;85.56
13414;BME280;6778;48.136;11.386;2022-12-15T02:17:26;94043.75;;;1.54;85.43
13414;BME280;6778;48.136;11.386;2022-12-15T02:26:37;94055.47;;;1.50;84.99
13414;BME280;6778;48.136;11.386;2022-12-15T02:32:23;94060.03;;;1.55;84.69
13414;BME280;6778;48.136;11.386;2022-12-15T02:35:00;94062.25;;;1.58;84.33
13414;BME280;6778;48.136;11.386;2022-12-15T02:37:33;94064.41;;;1.54;84.28
13414;BME280;6778;48.136;11.386;2022-12-15T02:40:06;94070.97;;;1.57;84.21
13414;BME280;6778;48.136;11.386;2022-12-15T02:42:40;94072.97;;;1.61;83.89
13414;BME280;6778;48.136;11.386;2022-12-15T02:45:13;94074.94;;;1.59;84.29
13414;BME280;6778;48.136;11.386;2022-12-15T02:47:57;94082.28;;;1.56;84.57
13414;BME280;6778;48.136;11.386;2022-12-15T02:50:51;94085.47;;;1.58;84.75
13414;BME280;6778;48.136;11.386;2022-12-15T02:53:41;94081.47;;;1.55;84.88
13414;BME280;6778;48.136;11.386;2022-12-15T02:56:26;94085.03;;;1.54;84.86
13414;BME280;6778;48.136;11.386;2022-12-15T02:59:06;94084.25;;;1.54;84.74
13414;BME280;6778;48.136;11.386;2022-12-15T03:01:44;94087.00;;;1.46;84.87
13414;BME280;6778;48.136;11.386;2022-12-15T03:04:18;94089.59;;;1.52;84.86
13414;BME280;6778;48.136;11.386;2022-12-15T03:06:53;94082.25;;;1.49;84.66
13414;BME280;6778;48.136;11.386;2022-12-15T03:09:27;94078.22;;;1.40;84.75
13414;BME280;6778;48.136;11.386;2022-12-15T03:11:55;94077.88;;;1.43;84.70
13414;BME280;6778;48.136;11.386;2022-12-15T03:14:24;94081.59;;;1.41;85.07
13414;BME280;6778;48.136;11.386;2022-12-15T03:16:53;94081.25;;;1.44;84.46
13414;BME280;6778;48.136;11.386;2022-12-15T03:19:25;94085.66;;;1.56;83.97
13414;BME280;6778;48.136;11.386;2022-12-15T03:21:53;94092.38;;;1.51;84.01
13414;BME280;6778;48.136;11.386;2022-12-15T03:24:22;94087.22;;;1.51;84.19
13414;BME280;6778;48.136;11.386;2022-12-15T03:26:50;94096.34;;;1.53;83.92
13414;BME280;6778;48.136;11.386;2022-12-15T03:29:19;94100.72;;;1.53;83.73
13414;BME280;6778;48.136;11.386;2022-12-15T03:31:47;94108.19;;;1.41;84.04
13414;BME280;6778;48.136;11.386;2022-12-15T03:34:16;94116.44;;;1.58;84.70
13414;BME280;6778;48.136;11.386;2022-12-15T03:36:48;94110.81;;;1.96;83.03
13414;BME280;6778;48.136;11.386;2022-12-15T03:39:17;94114.16;;;1.83;82.10
13414;BME280;6778;48.136;11.386;2022-12-15T03:41:47;94114.34;;;1.81;82.06
13414;BME280;6778;48.136;11.386;2022-12-15T03:44:18;94119.47;;;1.75;82.10
13414;BME280;6778;48.136;11.386;2022-12-15T03:46:48;94114.16;;;1.83;82.26
13414;BME280;6778;48.136;11.386;2022-12-15T03:49:17;94109.00;;;1.89;81.28
13414;BME280;6778;48.136;11.386;2022-12-15T03:51:51;94109.38;;;1.80;81.19
13414;BME280;6778;48.136;11.386;2022-12-15T03:54:20;94118.31;;;1.77;81.21
13414;BME280;6778;48.136;11.386;2022-12-15T03:56:48;94118.66;;;1.68;82.06
13414;BME280;6778;48.136;11.386;2022-12-15T03:59:19;94123.47;;;1.77;81.82
13414;BME280;6778;48.136;11.386;2022-12-15T04:01:49;94118.69;;;1.74;81.21
13414;BME280;6778;48.136;11.386;2022-12-15T04:04:17;94124.00;;;1.66;81.79
13414;BME280;6778;48.136;11.386;2022-12-15T04:06:46;94131.16;;;1.64;81.83
13414;BME280;6778;48.136;11.386;2022-12-15T04:09:17;94133.06;;;1.55;82.17
13414;BME280;6778;48.136;11.386;2022-12-15T04:11:45;94136.09;;;1.59;82.03
13414;BME280;6778;48.136;11.386;2022-12-15T04:14:14;94129.38;;;1.64;81.48
13414;BME280;6778;48.136;11.386;2022-12-15T04:16:42;94120.78;;;1.57;81.42
13414;BME280;6778;48.136;11.386;2022-12-15T04:19:15;94125.38;;;1.62;80.97
13414;BME280;6778;48.136;11.386;2022-12-15T04:21:56;94127.16;;;1.61;80.69
13414;BME280;6778;48.136;11.386;2022-12-15T04:24:29;94133.31;;;1.60;80.88
13414;BME280;6778;48.136;11.386;2022-12-15T04:27:10;94135.06;;;1.53;81.22
13414;BME280;6778;48.136;11.386;2022-12-15T04:29:51;94129.47;;;1.43;81.40
13414;BME280;6778;48.136;11.386;2022-12-15T04:32:32;94132.19;;;1.42;81.81
13414;BME280;6778;48.136;11.386;2022-12-15T04:35:13;94149.84;;;1.38;81.21
13414;BME280;6778;48.136;11.386;2022-12-15T04:37:55;94148.06;;;1.39;80.73
13414;BME280;6778;48.136;11.386;2022-12-15T04:40:38;94142.31;;;1.36;80.70
13414;BME280;6778;48.136;11.386;2022-12-15T04:43:19;94140.53;;;1.37;80.49
13414;BME280;6778;48.136;11.386;2022-12-15T04:46:00;94137.75;;;1.39;80.15
13414;BME280;6778;48.136;11.386;2022-12-15T04:48:41;94143.72;;;1.39;80.23
13414;BME280;6778;48.136;11.386;2022-12-15T04:51:22;94143.44;;;1.27;80.36
13414;BME280;6778;48.136;11.386;2022-12-15T04:54:03;94141.03;;;1.26;80.65
13414;BME280;6778;48.136;11.386;2022-12-15T04:56:48;94150.56;;;1.25;80.69
13414;BME280;6778;48.136;11.386;2022-12-15T04:59:29;94144.84;;;1.30;80.84
13414;BME280;6778;48.136;11.386;2022-12-15T05:02:10;94142.81;;;1.25;80.78
13414;BME280;6778;48.136;11.386;2022-12-15T05:04:51;94151.00;;;1.29;80.87
13414;BME280;6778;48.136;11.386;2022-12-15T05:07:31;94151.75;;;1.23;80.71
13414;BME280;6778;48.136;11.386;2022-12-15T05:10:12;94144.97;;;1.22;81.01
13414;BME280;6778;48.136;11.386;2022-12-15T05:13:06;94150.47;;;1.12;81.48
13414;BME280;6778;48.136;11.386;2022-12-15T05:15:47;94154.78;;;1.05;81.03
13414;BME280;6778;48.136;11.386;2022-12-15T05:18:28;94164.06;;;0.99;80.77
13414;BME280;6778;48.136;11.386;2022-12-15T05:21:09;94166.28;;;1.02;80.83
13414;BME280;6778;48.136;11.386;2022-12-15T05:23:51;94176.63;;;1.09;80.79
13414;BME280;6778;48.136;11.386;2022-12-15T05:26:32;94179.22;;;1.09;81.00
13414;BME280;6778;48.136;11.386;2022-12-15T05:29:16;94184.38;;;1.09;81.04
13414;BME280;6778;48.136;11.386;2022-12-15T05:31:57;94182.94;;;1.06;81.25
13414;BME280;6778;48.136;11.386;2022-12-15T05:34:28;94178.78;;;1.05;81.58
13414;BME280;6778;48.136;11.386;2022-12-15T05:36:59;94185.06;;;0.96;81.58
13414;BME280;6778;48.136;11.386;2022-12-15T05:39:28;94174.81;;;1.03;81.80
13414;BME280;6778;48.136;11.386;2022-12-15T05:41:57;94172.63;;;1.06;81.65
13414;BME280;6778;48.136;11.386;2022-12-15T05:44:28;94181.00;;;1.08;81.76
13414;BME280;6778;48.136;11.386;2022-12-15T05:46:57;94172.63;;;1.06;81.54
13414;BME280;6778;48.136;11.386;2022-12-15T05:49:25;94176.00;;;1.07;81.71
13414;BME280;6778;48.136;11.386;2022-12-15T05:51:54;94190.81;;;0.98;82.41
13414;BME280;6778;48.136;11.386;2022-12-15T05:54:22;94205.84;;;0.95;82.51
13414;BME280;6778;48.136;11.386;2022-12-15T05:56:51;94203.66;;;0.92;82.79
13414;BME280;6778;48.136;11.386;2022-12-15T05:59:19;94209.84;;;0.97;82.51
13414;BME280;6778;48.136;11.386;2022-12-15T06:01:51;94216.13;;;0.88;82.71
13414;BME280;6778;48.136;11.386;2022-12-15T06:04:20;94214.22;;;0.97;82.63
13414;BME280;6778;48.136;11.386;2022-12-15T06:06:48;94215.59;;;0.99;82.56
13414;BME280;6778;48.136;11.386;2022-12-15T06:09:17;94218.00;;;1.01;82.43
13414;BME280;6778;48.136;11.386;2022-12-15T06:11:45;94220.34;;;0.96;82.76
13414;BME280;6778;48.136;11.386;2022-12-15T06:14:14;94219.91;;;0.92;83.11
13414;BME280;6778;48.136;11.386;2022-12-15T06:16:42;94225.13;;;0.99;82.57
13414;BME280;6778;48.136;11.386;2022-12-15T06:19:13;94234.38;;;0.93;82.93
13414;BME280;6778;48.136;11.386;2022-12-15T06:21:42;94236.78;;;0.95;82.87
13414;BME280;6778;48.136;11.386;2022-12-15T06:24:10;94226.66;;;0.93;83.25
13414;BME280;6778;48.136;11.386;2022-12-15T06:26:39;94236.84;;;1.01;82.91
13414;BME280;6778;48.136;11.386;2022-12-15T06:29:11;94242.00;;;1.01;82.99
13414;BME280;6778;48.136;11.386;2022-12-15T06:31:42;94242.38;;;0.98;83.11
13414;BME280;6778;48.136;11.386;2022-12-15T06:34:14;94236.63;;;0.96;83.06
13414;BME280;6778;48.136;11.386;2022-12-15T06:36:43;94238.56;;;0.94;83.15
13414;BME280;6778;48.136;11.386;2022-12-15T06:39:14;94249.91;;;1.00;82.85
13414;BME280;6778;48.136;11.386;2022-12-15T06:41:43;94254.03;;;0.94;82.49
13414;BME280;6778;48.136;11.386;2022-12-15T06:44:13;94254.28;;;0.99;82.23
13414;BME280;6778;48.136;11.386;2022-12-15T06:46:42;94252.38;;;0.87;82.73
13414;BME280;6778;48.136;11.386;2022-12-15T06:49:14;94260.78;;;0.95;82.47
13414;BME280;6778;48.136;11.386;2022-12-15T06:51:42;94256.31;;;1.04;82.17
13414;BME280;6778;48.136;11.386;2022-12-15T06:54:11;94261.81;;;1.01;82.13
13414;BME280;6778;48.136;11.386;2022-12-15T06:56:41;94263.44;;;1.02;82.44
13414;BME280;6778;48.136;11.386;2022-12-15T06:59:10;94260.22;;;1.00;82.18
13414;BME280;6778;48.136;11.386;2022-12-15T07:01:40;94267.34;;;0.98;82.77
13414;BME280;6778;48.136;11.386;2022-12-15T07:04:09;94273.91;;;1.00;82.28
13414;BME280;6778;48.136;11.386;2022-12-15T07:06:41;94266.38;;;0.99;82.43
13414;BME280;6778;48.136;11.386;2022-12-15T07:09:13;94269.13;;;0.97;81.76
13414;BME280;6778;48.136;11.386;2022-12-15T07:11:43;94267.34;;;0.98;82.19
13414;BME280;6778;48.136;11.386;2022-12-15T07:14:14;94273.84;;;0.94;82.13
13414;BME280;6778;48.136;11.386;2022-12-15T07:16:44;94267.59;;;1.03;81.87
13414;BME280;6778;48.136;11.386;2022-12-15T07:19:13;94270.78;;;1.05;81.82
13414;BME280;6778;48.136;11.386;2022-12-15T07:21:44;94263.66;;;1.07;81.87
13414;BME280;6778;48.136;11.386;2022-12-15T07:24:13;94271.91;;;0.96;81.66
13414;BME280;6778;48.136;11.386;2022-12-15T07:26:41;94272.06;;;0.94;82.05
13414;BME280;6778;48.136;11.386;2022-12-15T07:29:11;94281.03;;;0.98;82.46
13414;BME280;6778;48.136;11.386;2022-12-15T07:31:40;94280.25;;;0.98;82.61
13414;BME280;6778;48.136;11.386;2022-12-15T07:34:11;94286.19;;;0.98;82.49
13414;BME280;6778;48.136;11.386;2022-12-15T07:36:39;94279.50;;;1.04;82.30
13414;BME280;6778;48.136;11.386;2022-12-15T07:39:10;94271.16;;;1.02;82.13
13414;BME280;6778;48.136;11.386;2022-12-15T07:41:40;94277.91;;;1.03;82.16
13414;BME280;6778;48.136;11.386;2022-12-15T07:44:10;94272.38;;;1.06;81.62
13414;BME280;6778;48.136;11.386;2022-12-15T07:46:39;94276.50;;;1.00;82.11
13414;BME280;6778;48.136;11.386;2022-12-15T07:49:11;94274.84;;;1.14;81.60
13414;BME280;6778;48.136;11.386;2022-12-15T07:51:41;94268.66;;;1.08;81.52
13414;BME280;6778;48.136;11.386;2022-12-15T07:54:12;94276.00;;;1.12;81.73
13414;BME280;6778;48.136;11.386;2022-12-15T07:56:43;94263.78;;;1.20;81.33
13414;BME280;6778;48.136;11.386;2022-12-15T07:59:12;94260.53;;;1.33;81.25
13414;BME280;6778;48.136;11.386;2022-12-15T08:01:41;94259.59;;;1.41;80.61
13414;BME280;6778;48.136;11.386;2022-12-15T08:04:10;94259.66;;;1.47;80.05
13414;BME280;6778;48.136;11.386;2022-12-15T08:06:38;94261.81;;;1.44;80.20
13414;BME280;6778;48.136;11.386;2022-12-15T08:09:08;94280.53;;;1.52;80.10
13414;BME280;6778;48.136;11.386;2022-12-15T08:11:40;94277.66;;;1.69;80.85
13414;BME280;6778;48.136;11.386;2022-12-15T08:14:09;94276.75;;;1.76;81.52
13414;BME280;6778;48.136;11.386;2022-12-15T08:16:38;94281.56;;;1.86;80.62
13414;BME280;6778;48.136;11.386;2022-12-15T08:19:10;94279.53;;;1.81;78.56
13414;BME280;6778;48.136;11.386;2022-12-15T08:21:42;94286.69;;;1.79;78.92
13414;BME280;6778;48.136;11.386;2022-12-15T08:24:13;94301.22;;;1.87;78.19
13414;BME280;6778;48.136;11.386;2022-12-15T08:26:46;94309.13;;;1.79;78.34
13414;BME280;6778;48.136;11.386;2022-12-15T08:29:15;94319.69;;;1.84;78.87
13414;BME280;6778;48.136;11.386;2022-12-15T08:31:43;94328.19;;;1.78;79.25
13414;BME280;6778;48.136;11.386;2022-12-15T08:34:12;94330.31;;;1.74;79.31
13414;BME280;6778;48.136;11.386;2022-12-15T08:36:40;94328.94;;;1.72;79.69
13414;BME280;6778;48.136;11.386;2022-12-15T08:39:09;94339.59;;;1.69;79.07
13414;BME280;6778;48.136;11.386;2022-12-15T08:41:38;94343.88;;;1.76;78.93
13414;BME280;6778;48.136;11.386;2022-12-15T08:44:09;94347.41;;;1.75;77.84
13414;BME280;6778;48.136;11.386;2022-12-15T08:46:38;94339.25;;;1.72;78.61
13414;BME280;6778;48.136;11.386;2022-12-15T08:49:06;94340.28;;;1.77;78.92
13414;BME280;6778;48.136;11.386;2022-12-15T08:51:35;94348.84;;;1.78;78.83
13414;BME280;6778;48.136;11.386;2022-12-15T08:54:04;94346.72;;;1.88;78.73
13414;BME280;6778;48.136;11.386;2022-12-15T08:56:34;94349.00;;;1.98;79.12
13414;BME280;6778;48.136;11.386;2022-12-15T08:59:04;94362.56;;;2.06;78.68
13414;BME280;6778;48.136;11.386;2022-12-15T09:01:36;94358.63;;;2.10;78.69
13414;BME280;6778;48.136;11.386;2022-12-15T09:04:06;94347.50;;;2.16;78.03
13414;BME280;6778;48.136;11.386;2022-12-15T09:06:35;94339.59;;;2.18;78.05
13414;BME280;6778;48.136;11.386;2022-12-15T09:09:05;94340.75;;;2.15;78.50
13414;BME280;6778;48.136;11.386;2022-12-15T09:11:34;94353.50;;;2.17;78.07
13414;BME280;6778;48.136;11.386;2022-12-15T09:14:03;94340.28;;;2.05;78.60
13414;BME280;6778;48.136;11.386;2022-12-15T09:16:35;94317.94;;;2.19;77.94
13414;BME280;6778;48.136;11.386;2022-12-15T09:19:04;94308.97;;;2.15;77.99
13414;BME280;6778;48.136;11.386;2022-12-15T09:21:33;94311.28;;;2.03;78.47
13414;BME280;6778;48.136;11.386;2022-12-15T09:24:02;94312.72;;;2.12;78.41
13414;BME280;6778;48.136;11.386;2022-12-15T09:26:32;94317.28;;;2.10;78.57
13414;BME280;6778;48.136;11.386;2022-12-15T09:29:05;94310.34;;;2.11;78.50
13414;BME280;6778;48.136;11.386;2022-12-15T09:31:37;94310.75;;;2.14;77.85
13414;BME280;6778;48.136;11.386;2022-12-15T09:34:12;94310.38;;;2.17;77.54
13414;BME280;6778;48.136;11.386;2022-12-15T09:36:41;94308.22;;;1.93;78.61
13414;BME280;6778;48.136;11.386;2022-12-15T09:39:10;94306.63;;;1.92;79.08
13414;BME280;6778;48.136;11.386;2022-12-15T09:41:47;94304.66;;;1.94;79.06
13414;BME280;6778;48.136;11.386;2022-12-15T09:44:18;94302.56;;;2.04;78.77
13414;BME280;6778;48.136;11.386;2022-12-15T09:47:03;94301.84;;;2.17;78.82
13414;BME280;6778;48.136;11.386;2022-12-15T09:49:47;94303.84;;;2.22;78.65
13414;BME280;6778;48.136;11.386;2022-12-15T09:52:23;94304.66;;;2.29;78.30
13414;BME280;6778;48.136;11.386;2022-12-15T09:54:54;94290.41;;;2.33;78.53
13414;BME280;6778;48.136;11.386;2022-12-15T09:57:30;94284.47;;;2.39;78.21
13414;BME280;6778;48.136;11.386;2022-12-15T10:00:08;94288.06;;;2.44;78.94
13414;BME280;6778;48.136;11.386;2022-12-15T10:06:13;94275.28;;;2.36;77.09
13414;BME280;6778;48.136;11.386;2022-12-15T10:08:47;94271.41;;;2.54;77.84
13414;BME280;6778;48.136;11.386;2022-12-15T10:11:33;94273.78;;;2.55;77.88
13414;BME280;6778;48.136;11.386;2022-12-15T10:14:15;94272.00;;;2.56;76.53
13414;BME280;6778;48.136;11.386;2022-12-15T10:16:57;94262.31;;;2.64;76.75
13414;BME280;6778;48.136;11.386;2022-12-15T10:19:38;94272.66;;;2.64;77.27
13414;BME280;6778;48.136;11.386;2022-12-15T10:22:15;94278.41;;;2.66;77.30
13414;BME280;6778;48.136;11.386;2022-12-15T10:24:47;94277.47;;;2.81;76.83
13414;BME280;6778;48.136;11.386;2022-12-15T10:27:39;94270.09;;;2.78;76.48
13414;BME280;6778;48.136;11.386;2022-12-15T10:30:13;94263.53;;;2.75;76.52
13414;BME280;6778;48.136;11.386;2022-12-15T10:32:48;94271.25;;;2.68;76.93
13414;BME280;6778;48.136;11.386;2022-12-15T10:35:21;94271.66;;;2.65;76.74
13414;BME280;6778;48.136;11.386;2022-12-15T10:37:58;94266.00;;;2.49;76.91
13414;BME280;6778;48.136;11.386;2022-12-15T10:40:44;94250.47;;;2.42;77.37
13414;BME280;6778;48.136;11.386;2022-12-15T10:43:25;94255.81;;;2.34;78.18
13414;BME280;6778;48.136;11.386;2022-12-15T10:46:04;94257.81;;;2.32;78.78
13414;BME280;6778;48.136;11.386;2022-12-15T10:48:34;94257.97;;;2.30;79.00
13414;BME280;6778;48.136;11.386;2022-12-15T10:51:15;94250.44;;;2.35;78.66
13414;BME280;6778;48.136;11.386;2022-12-15T10:53:51;94240.56;;;2.45;78.64
13414;BME280;6778;48.136;11.386;2022-12-15T10:56:23;94221.28;;;2.48;78.03
13414;BME280;6778;48.136;11.386;2022-12-15T10:58:56;94222.50;;;2.52;77.76
13414;BME280;6778;48.136;11.386;2022-12-15T11:01:28;94222.88;;;2.49;78.37
13414;BME280;6778;48.136;11.386;2022-12-15T11:03:57;94218.53;;;2.56;78.87
13414;BME280;6778;48.136;11.386;2022-12-15T11:06:29;94226.91;;;2.65;78.88
13414;BME280;6778;48.136;11.386;2022-12-15T11:09:27;94233.06;;;2.70;78.48
13414;BME280;6778;48.136;11.386;2022-12-15T11:12:01;94218.56;;;2.76;77.77
13414;BME280;6778;48.136;11.386;2022-12-15T11:14:46;94229.31;;;2.66;78.57
13414;BME280;6778;48.136;11.386;2022-12-15T11:17:17;94221.59;;;2.86;77.91
13414;BME280;6778;48.136;11.386;2022-12-15T11:19:53;94217.59;;;2.90;77.69
13414;BME280;6778;48.136;11.386;2022-12-15T11:22:34;94215.44;;;2.87;78.17
13414;BME280;6778;48.136;11.386;2022-12-15T11:25:18;94215.00;;;2.77;77.96
13414;BME280;6778;48.136;11.386;2022-12-15T11:28:00;94217.97;;;2.74;77.67
13414;BME280;6778;48.136;11.386;2022-12-15T11:30:36;94206.28;;;2.85;77.29
13414;BME280;6778;48.136;11.386;2022-12-15T11:33:08;94200.28;;;2.84;77.63
13414;BME280;6778;48.136;11.386;2022-12-15T11:35:56;94199.91;;;2.81;77.79
13414;BME280;6778;48.136;11.386;2022-12-15T11:38:36;94208.22;;;2.76;77.71
13414;BME280;6778;48.136;11.386;2022-12-15T11:41:32;94211.44;;;2.78;78.00
13414;BME280;6778;48.136;11.386;2022-12-15T11:44:17;94224.94;;;2.73;77.68
13414;BME280;6778;48.136;11.386;2022-12-15T11:46:58;94219.97;;;2.65;78.15
13414;BME280;6778;48.136;11.386;2022-12-15T11:49:51;94223.91;;;2.61;78.45
13414;BME280;6778;48.136;11.386;2022-12-15T11:55:32;94214.38;;;2.62;77.92
13414;BME280;6778;48.136;11.386;2022-12-15T11:58:38;94221.91;;;2.63;78.78
13414;BME280;6778;48.136;11.386;2022-12-15T12:01:24;94212.19;;;2.65;78.84
13414;BME280;6778;48.136;11.386;2022-12-15T12:04:16;94211.78;;;2.62;79.11
13414;BME280;6778;48.136;11.386;2022-12-15T12:06:58;94215.97;;;2.69;78.98
13414;BME280;6778;48.136;11.386;2022-12-15T12:09:34;94207.63;;;2.74;78.56
13414;BME280;6778;48.136;11.386;2022-12-15T12:12:14;94195.09;;;2.78;78.12
13414;BME280;6778;48.136;11.386;2022-12-15T12:15:02;94184.78;;;2.71;78.31
13414;BME280;6778;48.136;11.386;2022-12-15T12:17:42;94169.25;;;2.64;78.49
13414;BME280;6778;48.136;11.386;2022-12-15T12:20:17;94156.13;;;2.59;78.31
13414;BME280;6778;48.136;11.386;2022-12-15T12:22:57;94152.31;;;2.55;78.54
13414;BME280;6778;48.136;11.386;2022-12-15T12:25:34;94146.75;;;2.52;78.92
13414;BME280;6778;48.136;11.386;2022-12-15T12:28:15;94148.56;;;2.51;79.24
13414;BME280;6778;48.136;11.386;2022-12-15T12:30:50;94140.59;;;2.46;78.92
13414;BME280;6778;48.136;11.386;2022-12-15T12:33:32;94127.47;;;2.54;79.07
13414;BME280;6778;48.136;11.386;2022-12-15T12:36:10;94125.84;;;2.40;79.15
13414;BME280;6778;48.136;11.386;2022-12-15T12:38:42;94119.91;;;2.46;79.25
13414;BME280;6778;48.136;11.386;2022-12-15T12:41:20;94123.09;;;2.48;79.04
13414;BME280;6778;48.136;11.386;2022-12-15T12:43:54;94131.41;;;2.43;79.33
13414;BME280;6778;48.136;11.386;2022-12-15T12:46:32;94132.25;;;2.44;78.85
13414;BME280;6778;48.136;11.386;2022-12-15T12:49:07;94124.25;;;2.32;79.07
13414;BME280;6778;48.136;11.386;2022-12-15T12:51:48;94132.22;;;2.31;78.95
13414;BME280;6778;48.136;11.386;2022-12-15T12:54:41;94137.75;;;2.34;78.80
13414;BME280;6778;48.136;11.386;2022-12-15T12:57:35;94138.53;;;2.28;79.15
13414;BME280;6778;48.136;11.386;2022-12-15T13:00:19;94136.13;;;2.20;79.16
13414;BME280;6778;48.136;11.386;2022-12-15T13:05:48;94149.06;;;2.27;79.29
13414;BME280;6778;48.136;11.386;2022-12-15T13:08:46;94148.31;;;2.33;79.05
13414;BME280;6778;48.136;11.386;2022-12-15T13:11:55;94155.78;;;2.14;79.38
13414;BME280;6778;48.136;11.386;2022-12-15T13:14:42;94161.78;;;2.22;79.17
13414;BME280;6778;48.136;11.386;2022-12-15T13:17:18;94158.38;;;2.14;79.41
13414;BME280;6778;48.136;11.386;2022-12-15T13:22:52;94149.03;;;2.13;79.11
13414;BME280;6778;48.136;11.386;2022-12-15T13:25:40;94150.22;;;2.11;79.17
13414;BME280;6778;48.136;11.386;2022-12-15T13:28:24;94137.31;;;2.11;78.91
13414;BME280;6778;48.136;11.386;2022-12-15T13:31:13;94127.75;;;2.05;79.01
13414;BME280;6778;48.136;11.386;2022-12-15T13:33:56;94112.03;;;2.00;79.29
13414;BME280;6778;48.136;11.386;2022-12-15T13:36:46;94104.06;;;1.95;79.46
13414;BME280;6778;48.136;11.386;2022-12-15T13:42:31;94114.69;;;2.26;82.62
13414;BME280;6778;48.136;11.386;2022-12-15T13:45:30;94123.66;;;2.37;80.21
13414;BME280;6778;48.136;11.386;2022-12-15T13:48:10;94119.06;;;2.19;78.38
13414;BME280;6778;48.136;11.386;2022-12-15T13:50:47;94117.50;;;2.31;80.11
13414;BME280;6778;48.136;11.386;2022-12-15T13:53:21;94110.31;;;2.20;78.53
13414;BME280;6778;48.136;11.386;2022-12-15T13:56:02;94104.88;;;2.02;78.54
13414;BME280;6778;48.136;11.386;2022-12-15T13:58:40;94104.50;;;1.98;78.71
13414;BME280;6778;48.136;11.386;2022-12-15T14:01:23;94110.22;;;1.94;79.35
13414;BME280;6778;48.136;11.386;2022-12-15T14:04:04;94113.97;;;1.84;79.42
13414;BME280;6778;48.136;11.386;2022-12-15T14:06:36;94114.53;;;1.80;79.53
13414;BME280;6778;48.136;11.386;2022-12-15T14:09:12;94108.84;;;1.91;81.14
13414;BME280;6778;48.136;11.386;2022-12-15T14:11:46;94105.47;;;1.97;80.87
13414;BME280;6778;48.136;11.386;2022-12-15T14:14:18;94108.09;;;2.04;81.16
13414;BME280;6778;48.136;11.386;2022-12-15T14:16:56;94102.94;;;2.10;81.12
13414;BME280;6778;48.136;11.386;2022-12-15T14:19:36;94100.91;;;1.99;79.85